Dora Bend, Louisiana
Current Conditions -  °F | °C
As of 5:55 PM on Monday 20 Oct 2014 (Local Time) from KOPL Reporting Station
Clear Clear  
Wind Chill: 72°   Ceiling: Unl
Heat Index: 72°   Visibility: 10mi
Dew Point: 55°   Wind: 3mph
Humidity: 54%   Direction: 20°NNE
Pressure: 30.01"   Gusts: NA
Location:  30.9908°N, 92.0816°W
Report Text: KOPL 202255Z AUTO 02003KT 10SM CLR 22/13 A3001 RMK AO2 T02230125
Loading
Personal Weather Stations






























Interactive Weather Map
Tropical Storm Tracking
New forecast layout! Learn more

10-Day Weather Forecast

Advertisements
Track Severe Weather on mobile